Time;durP1;ratioP1;P1;durP2;ratioP2;P2;SDS_P1;SDS_P2;PMS_P1;PMS_P2;Temp;Humidity;BMP_temperature;BMP_pressure;BME280_temperature;BME280_humidity;BME280_pressure;Samples;Min_cycle;Max_cycle;Signal;HPM_P1;HPM_P2
2022/04/10 00:00:04;;;;;;;3.10;1.13;;;20.00;52.90;;;;;;4950077;28;88316;-67
2022/04/10 00:02:30;;;;;;;2.45;0.95;;;20.00;52.80;;;;;;4949432;28;91901;-67
2022/04/10 00:04:56;;;;;;;2.17;0.90;;;20.00;52.90;;;;;;4950197;28;88604;-68
2022/04/10 00:07:21;;;;;;;2.00;0.90;;;20.00;52.90;;;;;;4949744;28;87894;-67
2022/04/10 00:09:47;;;;;;;1.30;0.80;;;20.00;52.70;;;;;;4951757;28;87571;-67
2022/04/10 00:12:12;;;;;;;1.20;0.77;;;20.00;52.70;;;;;;4951668;28;88134;-67
2022/04/10 00:14:38;;;;;;;1.35;0.70;;;20.00;53.20;;;;;;4950202;28;87804;-67
2022/04/10 00:17:04;;;;;;;1.73;0.93;;;20.00;52.60;;;;;;4948431;28;88223;-67
2022/04/10 00:19:31;;;;;;;1.10;0.95;;;20.00;52.90;;;;;;4952828;28;87285;-67
2022/04/10 00:21:56;;;;;;;2.50;0.95;;;20.00;52.70;;;;;;4951098;28;89308;-67
2022/04/10 00:24:25;;;;;;;1.20;0.60;;;20.00;52.80;;;;;;4951608;28;87651;-67
2022/04/10 00:26:52;;;;;;;1.15;0.80;;;19.90;52.60;;;;;;4950844;28;88819;-67
2022/04/10 00:29:18;;;;;;;2.38;1.00;;;20.00;52.70;;;;;;4951090;28;86941;-67
2022/04/10 00:31:43;;;;;;;1.65;0.70;;;19.90;52.70;;;;;;4951233;28;87615;-67
2022/04/10 00:34:09;;;;;;;2.55;1.00;;;19.90;52.50;;;;;;4952309;28;87865;-67
2022/04/10 00:36:37;;;;;;;1.73;0.90;;;19.90;52.60;;;;;;4950188;28;87710;-67
2022/04/10 00:39:03;;;;;;;1.48;0.90;;;19.90;52.70;;;;;;4950451;28;87310;-67
2022/04/10 00:41:31;;;;;;;1.15;0.70;;;19.90;52.60;;;;;;4949426;28;87988;-67
2022/04/10 00:44:10;;;;;;;1.02;0.93;;;19.90;52.60;;;;;;4950881;28;87787;-67
2022/04/10 00:46:38;;;;;;;1.83;1.13;;;19.90;52.60;;;;;;4950959;28;87563;-67
2022/04/10 00:49:05;;;;;;;1.30;1.02;;;19.90;52.50;;;;;;4951543;28;87985;-67
2022/04/10 00:51:41;;;;;;;2.33;1.17;;;19.90;52.70;;;;;;4950660;28;88846;-67
2022/04/10 00:54:21;;;;;;;1.88;1.00;;;19.90;52.60;;;;;;4950488;28;87105;-67
2022/04/10 00:56:47;;;;;;;1.35;0.80;;;19.90;52.60;;;;;;4949028;28;88035;-67
2022/04/10 00:59:14;;;;;;;1.70;1.00;;;19.90;52.60;;;;;;4951308;28;87294;-67
2022/04/10 01:01:44;;;;;;;1.65;0.90;;;19.90;52.70;;;;;;4951673;28;88398;-67
2022/04/10 01:04:13;;;;;;;1.08;0.80;;;19.90;52.50;;;;;;4948689;28;87918;-67
2022/04/10 01:06:38;;;;;;;1.60;0.88;;;19.90;52.50;;;;;;4950015;28;87463;-67
2022/04/10 01:09:07;;;;;;;1.52;1.00;;;19.90;52.60;;;;;;4950097;28;86648;-67
2022/04/10 01:11:34;;;;;;;0.97;0.70;;;19.90;52.60;;;;;;4948372;28;90895;-67
2022/04/10 01:14:01;;;;;;;2.33;0.82;;;19.80;52.30;;;;;;4948858;28;88116;-67
2022/04/10 01:16:28;;;;;;;1.35;0.70;;;19.80;52.40;;;;;;4951114;28;88945;-67
2022/04/10 01:18:55;;;;;;;2.50;0.70;;;19.80;52.40;;;;;;4951494;28;87737;-67
2022/04/10 01:21:25;;;;;;;0.98;0.70;;;19.80;52.60;;;;;;4948827;28;87917;-67
2022/04/10 01:23:55;;;;;;;1.65;0.70;;;19.80;52.50;;;;;;4948663;28;87777;-67
2022/04/10 01:26:26;;;;;;;1.77;0.63;;;19.80;52.40;;;;;;4949585;28;88027;-67
2022/04/10 01:29:06;;;;;;;3.08;1.00;;;19.80;52.40;;;;;;4949565;28;88005;-67
2022/04/10 01:31:34;;;;;;;1.38;0.77;;;19.80;52.40;;;;;;4948475;28;87701;-67
2022/04/10 01:34:02;;;;;;;0.90;0.77;;;19.80;52.20;;;;;;4952753;28;89336;-67
2022/04/10 01:36:30;;;;;;;1.00;0.80;;;19.80;52.40;;;;;;4953448;28;87315;-67
2022/04/10 01:38:59;;;;;;;1.02;0.80;;;19.80;52.40;;;;;;4953557;28;87594;-67
2022/04/10 01:41:27;;;;;;;0.98;0.70;;;19.80;52.50;;;;;;4953908;28;89852;-66
2022/04/10 01:43:55;;;;;;;0.88;0.80;;;19.80;52.30;;;;;;4950835;28;91501;-67
2022/04/10 01:46:23;;;;;;;1.13;0.90;;;19.80;52.40;;;;;;4952240;28;87615;-67
2022/04/10 01:48:48;;;;;;;0.85;0.70;;;19.80;52.40;;;;;;4960927;28;90363;-68
2022/04/10 01:51:15;;;;;;;2.25;1.00;;;19.70;52.40;;;;;;4952203;28;88243;-67
2022/04/10 01:53:41;;;;;;;2.08;1.02;;;19.70;52.40;;;;;;4953438;28;87398;-67
2022/04/10 01:56:08;;;;;;;1.95;1.00;;;19.70;52.20;;;;;;4952755;28;87292;-67
2022/04/10 01:58:41;;;;;;;1.02;0.77;;;19.70;52.20;;;;;;4954603;28;87134;-67
2022/04/10 02:01:09;;;;;;;1.05;0.90;;;19.70;52.30;;;;;;4952841;28;88456;-67
2022/04/10 02:03:35;;;;;;;1.50;1.00;;;19.70;52.30;;;;;;4954660;28;87967;-67
2022/04/10 02:06:01;;;;;;;0.90;0.70;;;19.70;51.70;;;;;;4953258;28;88145;-67
2022/04/10 02:08:28;;;;;;;1.70;0.90;;;19.70;52.20;;;;;;4954263;28;87877;-67
2022/04/10 02:10:54;;;;;;;1.27;0.80;;;19.70;52.40;;;;;;4952984;28;88190;-67
2022/04/10 02:13:20;;;;;;;1.00;0.80;;;19.70;52.20;;;;;;4950904;28;90494;-66
2022/04/10 02:15:46;;;;;;;1.58;1.08;;;19.70;52.10;;;;;;4954474;28;87043;-66
2022/04/10 02:18:11;;;;;;;1.30;0.80;;;19.70;52.30;;;;;;4952682;28;87950;-66
2022/04/10 02:20:37;;;;;;;0.90;0.77;;;19.70;52.10;;;;;;4953017;28;88254;-66
2022/04/10 02:23:03;;;;;;;1.02;0.80;;;19.70;52.10;;;;;;4953898;28;87965;-67
2022/04/10 02:25:29;;;;;;;1.20;0.90;;;19.70;52.10;;;;;;4953230;28;87681;-67
2022/04/10 02:27:54;;;;;;;1.20;0.80;;;19.60;52.10;;;;;;4953139;28;87704;-66
2022/04/10 02:30:20;;;;;;;1.17;0.90;;;19.70;52.10;;;;;;4951454;28;94029;-67
2022/04/10 02:32:46;;;;;;;0.88;0.80;;;19.60;52.10;;;;;;4953336;28;88164;-67
2022/04/10 02:35:12;;;;;;;1.00;0.70;;;19.60;52.00;;;;;;4952138;28;87476;-67
2022/04/10 02:37:45;;;;;;;1.40;0.90;;;19.60;52.10;;;;;;4948981;28;89374;-67
2022/04/10 02:40:14;;;;;;;1.02;0.75;;;19.60;52.10;;;;;;4951672;28;87644;-67
2022/04/10 02:42:40;;;;;;;1.05;0.75;;;19.60;52.10;;;;;;4959728;28;90644;-67
2022/04/10 02:45:06;;;;;;;2.35;0.80;;;19.60;52.00;;;;;;4953081;28;87463;-66
2022/04/10 02:47:32;;;;;;;1.27;0.75;;;19.60;51.90;;;;;;4953281;28;87281;-66
2022/04/10 02:49:58;;;;;;;1.20;0.70;;;19.60;52.10;;;;;;4953033;28;88106;-67
2022/04/10 02:52:23;;;;;;;1.98;1.10;;;19.60;52.00;;;;;;4950959;28;88100;-67
2022/04/10 02:54:49;;;;;;;1.05;0.80;;;19.60;52.00;;;;;;4950166;28;87886;-67
2022/04/10 02:57:15;;;;;;;1.30;0.80;;;19.60;51.90;;;;;;4952190;28;88056;-67
2022/04/10 02:59:41;;;;;;;1.35;0.98;;;19.60;52.10;;;;;;4952747;28;88115;-67
2022/04/10 03:02:07;;;;;;;1.73;1.00;;;19.60;52.00;;;;;;4951908;28;87790;-67
2022/04/10 03:04:32;;;;;;;0.70;0.70;;;19.60;52.10;;;;;;4952587;28;87423;-67
2022/04/10 03:06:58;;;;;;;1.38;0.80;;;19.60;51.90;;;;;;4950801;28;89605;-67
2022/04/10 03:09:24;;;;;;;1.25;0.80;;;19.60;52.10;;;;;;4950482;28;88132;-67
2022/04/10 03:11:49;;;;;;;1.45;1.10;;;19.50;52.00;;;;;;4950687;28;87152;-66
2022/04/10 03:14:18;;;;;;;1.00;0.80;;;19.50;51.90;;;;;;4956737;28;88421;-66
2022/04/10 03:16:44;;;;;;;0.93;0.70;;;19.50;51.90;;;;;;4952226;28;87584;-67
2022/04/10 03:19:10;;;;;;;1.75;0.82;;;19.50;52.00;;;;;;4952417;28;89103;-67
2022/04/10 03:21:36;;;;;;;1.83;0.90;;;19.50;52.00;;;;;;4950985;28;88738;-67
2022/04/10 03:24:03;;;;;;;1.00;0.90;;;19.50;52.10;;;;;;4950277;28;87884;-67
2022/04/10 03:26:29;;;;;;;0.98;0.80;;;19.50;52.00;;;;;;4951220;28;87725;-67
2022/04/10 03:28:58;;;;;;;1.05;0.80;;;19.50;51.90;;;;;;4951525;28;88805;-67
2022/04/10 03:31:24;;;;;;;1.07;0.80;;;19.50;52.00;;;;;;4952161;28;87776;-67
2022/04/10 03:33:50;;;;;;;1.42;0.60;;;19.50;52.00;;;;;;4951601;28;87855;-67
2022/04/10 03:36:16;;;;;;;0.65;0.63;;;19.50;52.10;;;;;;4951299;28;88099;-66
2022/04/10 03:38:44;;;;;;;0.85;0.80;;;19.50;51.90;;;;;;4951710;28;87529;-67
2022/04/10 03:41:10;;;;;;;1.40;0.85;;;19.50;52.10;;;;;;4950688;28;88909;-67
2022/04/10 03:43:37;;;;;;;2.42;0.93;;;19.50;52.00;;;;;;4950218;28;88645;-67
2022/04/10 03:46:03;;;;;;;1.40;0.82;;;19.50;52.00;;;;;;4949848;28;87779;-67
2022/04/10 03:48:29;;;;;;;1.08;0.68;;;19.50;51.90;;;;;;4950726;28;87992;-67
2022/04/10 03:50:55;;;;;;;0.82;0.70;;;19.50;52.00;;;;;;4949350;28;91995;-67
2022/04/10 03:53:21;;;;;;;1.30;0.80;;;19.40;51.90;;;;;;4949213;28;87096;-67
2022/04/10 03:55:47;;;;;;;1.02;0.90;;;19.40;51.90;;;;;;4951255;28;89518;-67
2022/04/10 03:58:13;;;;;;;1.05;0.70;;;19.40;51.80;;;;;;4951913;28;87670;-67
2022/04/10 04:00:39;;;;;;;2.45;0.88;;;19.40;52.00;;;;;;4951467;28;87768;-66
2022/04/10 04:03:05;;;;;;;0.90;0.63;;;19.40;51.80;;;;;;4952274;28;87765;-67
2022/04/10 04:05:31;;;;;;;0.90;0.77;;;19.40;52.00;;;;;;4951464;28;87668;-67
2022/04/10 04:07:56;;;;;;;2.05;1.02;;;19.40;52.00;;;;;;4949030;28;88952;-67
2022/04/10 04:10:22;;;;;;;2.30;0.80;;;19.40;52.00;;;;;;4949581;28;92290;-67
2022/04/10 04:12:48;;;;;;;1.55;0.77;;;19.40;51.80;;;;;;4951387;28;86919;-67
2022/04/10 04:15:13;;;;;;;1.00;0.82;;;19.40;51.90;;;;;;4964764;28;88657;-67
2022/04/10 04:17:39;;;;;;;1.13;0.82;;;19.40;51.90;;;;;;4950290;28;90977;-67
2022/04/10 04:20:06;;;;;;;2.13;1.13;;;19.40;51.90;;;;;;4950017;28;87692;-67
2022/04/10 04:22:33;;;;;;;1.13;0.80;;;19.40;51.80;;;;;;4951047;28;87939;-67
2022/04/10 04:24:59;;;;;;;1.20;0.80;;;19.40;52.00;;;;;;4951877;28;86910;-67
2022/04/10 04:27:25;;;;;;;0.95;0.80;;;19.40;51.90;;;;;;4949374;28;91146;-67
2022/04/10 04:29:50;;;;;;;1.27;0.77;;;19.40;51.80;;;;;;4949803;28;87896;-67
2022/04/10 04:32:16;;;;;;;1.00;0.90;;;19.30;51.70;;;;;;4950709;28;88290;-67
2022/04/10 04:34:41;;;;;;;0.77;0.70;;;19.30;51.90;;;;;;4949058;28;88433;-67
2022/04/10 04:37:09;;;;;;;1.10;0.90;;;19.30;51.90;;;;;;4951357;28;88015;-67
2022/04/10 04:39:35;;;;;;;0.70;0.70;;;19.30;51.80;;;;;;4951053;28;87909;-67
2022/04/10 04:42:01;;;;;;;1.55;0.82;;;19.40;51.80;;;;;;4951254;28;87481;-67
2022/04/10 04:44:30;;;;;;;1.17;0.90;;;19.30;51.70;;;;;;4949638;28;88220;-67
2022/04/10 04:46:57;;;;;;;0.80;0.80;;;19.30;51.80;;;;;;4949403;28;87701;-67
2022/04/10 04:49:22;;;;;;;1.00;0.80;;;19.30;51.60;;;;;;4950907;28;87254;-67
2022/04/10 04:51:48;;;;;;;0.98;0.70;;;19.30;51.70;;;;;;4949307;28;86985;-67
2022/04/10 04:54:14;;;;;;;1.00;0.90;;;19.30;51.80;;;;;;4950886;28;86875;-66
2022/04/10 04:56:39;;;;;;;1.75;1.10;;;19.30;51.80;;;;;;4948703;28;90008;-67
2022/04/10 04:59:05;;;;;;;1.10;0.85;;;19.30;51.90;;;;;;4950574;28;88216;-67
2022/04/10 05:01:30;;;;;;;1.77;0.90;;;19.30;51.80;;;;;;4951115;28;87701;-67
2022/04/10 05:03:56;;;;;;;1.15;0.90;;;19.30;51.80;;;;;;4948970;28;90077;-67
2022/04/10 05:06:22;;;;;;;0.60;0.60;;;19.20;51.80;;;;;;4948693;28;91472;-67
2022/04/10 05:08:47;;;;;;;1.00;0.80;;;19.20;51.70;;;;;;4950910;28;87921;-67
2022/04/10 05:11:14;;;;;;;1.00;0.90;;;19.20;51.70;;;;;;4952303;28;86980;-67
2022/04/10 05:13:40;;;;;;;1.17;0.82;;;19.20;51.70;;;;;;4952320;28;90251;-66
2022/04/10 05:16:06;;;;;;;1.42;0.82;;;19.20;51.80;;;;;;4952007;28;88816;-67
2022/04/10 05:18:32;;;;;;;1.55;1.15;;;19.20;51.70;;;;;;4952296;28;90858;-67
2022/04/10 05:20:58;;;;;;;1.27;0.93;;;19.20;51.70;;;;;;4951949;28;88039;-67
2022/04/10 05:23:24;;;;;;;1.70;0.80;;;19.20;51.70;;;;;;4953132;28;87550;-66
2022/04/10 05:25:50;;;;;;;1.40;0.90;;;19.20;52.30;;;;;;4954306;28;88099;-67
2022/04/10 05:28:18;;;;;;;1.83;0.85;;;19.20;51.70;;;;;;4953589;28;87319;-67
2022/04/10 05:30:49;;;;;;;1.90;1.02;;;19.20;51.70;;;;;;4953703;28;88147;-67
2022/04/10 05:33:15;;;;;;;1.00;0.90;;;19.20;51.90;;;;;;4952302;28;87481;-66
2022/04/10 05:35:40;;;;;;;1.67;0.68;;;19.20;51.80;;;;;;4954054;28;87607;-67
2022/04/10 05:38:06;;;;;;;1.20;0.90;;;19.20;51.80;;;;;;4952830;28;87718;-67
2022/04/10 05:40:32;;;;;;;1.30;0.98;;;19.20;51.60;;;;;;4954093;28;87749;-67
2022/04/10 05:43:00;;;;;;;1.15;0.90;;;19.20;51.60;;;;;;4953211;28;88403;-67
2022/04/10 05:45:26;;;;;;;2.13;1.00;;;19.20;51.50;;;;;;4952592;28;91694;-67
2022/04/10 05:47:52;;;;;;;1.50;0.98;;;19.20;51.70;;;;;;4952949;28;87825;-66
2022/04/10 05:50:18;;;;;;;1.58;0.90;;;19.30;52.30;;;;;;4953098;28;87403;-67
2022/04/10 05:52:45;;;;;;;4.43;1.33;;;19.30;52.30;;;;;;4953407;28;87553;-67
2022/04/10 05:55:17;;;;;;;1.77;1.10;;;19.40;52.50;;;;;;4953099;28;87872;-67
2022/04/10 05:57:43;;;;;;;2.20;1.08;;;19.50;52.60;;;;;;4951293;28;91134;-67
2022/04/10 06:00:12;;;;;;;1.35;0.95;;;19.50;52.70;;;;;;4951672;28;87446;-67
2022/04/10 06:02:39;;;;;;;3.60;1.00;;;19.60;53.00;;;;;;4952272;28;87005;-67
2022/04/10 06:05:05;;;;;;;1.77;1.20;;;19.70;53.00;;;;;;4953370;28;87686;-67
2022/04/10 06:07:31;;;;;;;1.02;0.82;;;19.70;53.10;;;;;;4952371;28;87765;-67
2022/04/10 06:09:58;;;;;;;2.13;1.30;;;19.80;53.40;;;;;;4950339;28;88685;-67
2022/04/10 06:12:24;;;;;;;2.92;1.27;;;19.80;52.80;;;;;;4952890;28;87879;-67
2022/04/10 06:14:50;;;;;;;1.73;0.98;;;19.80;53.00;;;;;;4951440;28;90640;-66
2022/04/10 06:17:15;;;;;;;2.75;1.10;;;19.90;53.10;;;;;;4952787;28;87846;-66
2022/04/10 06:19:43;;;;;;;1.75;1.00;;;19.90;52.80;;;;;;4952493;28;87493;-67
2022/04/10 06:22:09;;;;;;;1.48;1.20;;;20.00;53.10;;;;;;4952515;28;87029;-67
2022/04/10 06:24:38;;;;;;;5.10;1.67;;;20.00;52.80;;;;;;4951428;28;88640;-67
2022/04/10 06:27:04;;;;;;;3.47;1.20;;;20.00;52.50;;;;;;4952110;28;87294;-67
2022/04/10 06:29:30;;;;;;;2.03;1.35;;;20.00;52.30;;;;;;4953015;28;86863;-67
2022/04/10 06:31:55;;;;;;;3.70;1.42;;;20.00;52.30;;;;;;4952862;28;86826;-67
2022/04/10 06:34:21;;;;;;;1.88;1.30;;;20.00;52.40;;;;;;4952552;28;88399;-68
2022/04/10 06:36:48;;;;;;;2.13;1.55;;;20.10;52.20;;;;;;4948846;28;90771;-66
2022/04/10 06:39:15;;;;;;;2.38;1.33;;;20.10;52.00;;;;;;4951759;28;87253;-67
2022/04/10 06:41:41;;;;;;;1.60;1.40;;;20.10;51.80;;;;;;4951502;28;87411;-66
2022/04/10 06:44:08;;;;;;;4.38;1.42;;;20.10;52.10;;;;;;4953193;28;88036;-67
2022/04/10 06:46:34;;;;;;;3.67;1.40;;;20.10;51.70;;;;;;4952245;28;89017;-66
2022/04/10 06:49:00;;;;;;;4.07;1.63;;;20.10;51.40;;;;;;4948863;28;87489;-67
2022/04/10 06:51:25;;;;;;;2.38;1.35;;;20.10;51.20;;;;;;4949589;28;87021;-67
2022/04/10 06:53:51;;;;;;;2.53;1.60;;;20.10;51.10;;;;;;4951426;28;88138;-66
2022/04/10 06:56:17;;;;;;;2.42;1.10;;;20.10;50.80;;;;;;4949283;28;90517;-67
2022/04/10 06:58:43;;;;;;;2.65;1.38;;;20.10;52.50;;;;;;4950605;28;88861;-67
2022/04/10 07:01:09;;;;;;;2.92;1.30;;;20.10;52.20;;;;;;4951058;28;87410;-67
2022/04/10 07:03:34;;;;;;;2.38;1.20;;;20.10;51.60;;;;;;4951177;28;90401;-66
2022/04/10 07:06:01;;;;;;;2.67;1.00;;;20.20;52.60;;;;;;4953847;28;87836;-67
2022/04/10 07:08:26;;;;;;;3.53;1.30;;;20.20;52.80;;;;;;4950549;28;88221;-66
2022/04/10 07:10:53;;;;;;;3.10;1.30;;;20.20;52.60;;;;;;4948068;28;90334;-67
2022/04/10 07:13:20;;;;;;;7.32;1.80;;;20.20;52.60;;;;;;4950238;28;88015;-66
2022/04/10 07:15:47;;;;;;;5.25;1.48;;;20.20;52.80;;;;;;4950933;28;87819;-66
2022/04/10 07:18:14;;;;;;;10.18;2.20;;;20.20;53.20;;;;;;4952211;28;88012;-67
2022/04/10 07:20:40;;;;;;;7.25;2.38;;;20.30;52.70;;;;;;4943261;28;89321;-66
2022/04/10 07:25:50;;;;;;;11.82;2.85;;;20.20;52.60;;;;;;4949217;28;87839;-66
2022/04/10 07:28:15;;;;;;;8.95;2.72;;;20.30;52.90;;;;;;4950343;28;87964;-65
2022/04/10 07:30:41;;;;;;;15.63;3.67;;;20.20;53.00;;;;;;4949835;28;86996;-66
2022/04/10 07:33:09;;;;;;;17.70;3.50;;;20.20;52.90;;;;;;4949271;28;88420;-66
2022/04/10 07:35:35;;;;;;;9.23;2.95;;;20.30;53.00;;;;;;4950224;28;87577;-66
2022/04/10 07:38:01;;;;;;;25.67;4.53;;;20.20;53.30;;;;;;4948189;28;87430;-65
2022/04/10 07:40:27;;;;;;;18.33;3.95;;;20.30;52.10;;;;;;4950660;28;87028;-66
2022/04/10 07:42:53;;;;;;;14.98;3.60;;;20.20;52.60;;;;;;4949935;28;87554;-66
2022/04/10 07:48:03;;;;;;;21.33;4.78;;;20.20;53.20;;;;;;4949774;28;89023;-66
2022/04/10 07:50:29;;;;;;;25.05;4.88;;;20.20;53.20;;;;;;4950664;28;87300;-66
2022/04/10 07:52:55;;;;;;;16.17;4.10;;;20.20;53.10;;;;;;4947899;28;87952;-66
2022/04/10 07:55:22;;;;;;;17.65;4.00;;;20.20;53.60;;;;;;4949423;28;88655;-65
2022/04/10 07:57:51;;;;;;;17.13;4.25;;;20.30;53.40;;;;;;4946924;28;87414;-65
2022/04/10 08:00:17;;;;;;;17.50;4.03;;;20.30;52.80;;;;;;4950299;28;87650;-66
2022/04/10 08:02:47;;;;;;;14.13;3.97;;;20.30;53.00;;;;;;4950219;28;87935;-65
2022/04/10 08:05:13;;;;;;;9.65;3.58;;;20.30;51.60;;;;;;4950269;28;87692;-66
2022/04/10 08:07:40;;;;;;;16.02;4.32;;;20.30;52.30;;;;;;4949856;28;88794;-66
2022/04/10 08:10:07;;;;;;;14.50;4.25;;;20.20;51.90;;;;;;4949695;28;88219;-66
2022/04/10 08:12:36;;;;;;;12.60;3.92;;;20.20;49.90;;;;;;4964136;28;91905;-66
2022/04/10 08:15:01;;;;;;;14.95;3.78;;;20.10;50.00;;;;;;4949975;28;88758;-65
2022/04/10 08:17:27;;;;;;;11.30;3.80;;;20.10;50.60;;;;;;4949326;28;87283;-66
2022/04/10 08:19:53;;;;;;;14.02;3.88;;;20.20;50.70;;;;;;4949268;28;87030;-66
2022/04/10 08:22:25;;;;;;;15.27;3.88;;;20.20;50.40;;;;;;4949468;28;88438;-66
2022/04/10 08:24:52;;;;;;;14.98;4.10;;;20.20;50.70;;;;;;4948801;28;87411;-66
2022/04/10 08:27:18;;;;;;;10.88;3.35;;;20.20;50.90;;;;;;4950123;28;87417;-66
2022/04/10 08:29:43;;;;;;;15.55;4.90;;;20.20;50.20;;;;;;4949453;28;86859;-66
2022/04/10 08:32:09;;;;;;;10.75;3.58;;;20.20;50.30;;;;;;4936398;28;89380;-67
2022/04/10 08:34:35;;;;;;;11.43;3.15;;;20.20;49.90;;;;;;4944077;28;88047;-67
2022/04/10 08:37:05;;;;;;;12.80;2.90;;;20.20;50.00;;;;;;4949192;28;88583;-67
2022/04/10 08:39:34;;;;;;;14.23;3.88;;;20.20;49.70;;;;;;4904799;28;87623;-67
2022/04/10 08:42:04;;;;;;;8.32;2.88;;;20.20;49.50;;;;;;4984611;28;88241;-67
2022/04/10 08:44:30;;;;;;;9.05;3.28;;;20.20;49.80;;;;;;5004861;28;91948;-67
2022/04/10 08:46:57;;;;;;;7.28;2.83;;;20.20;50.00;;;;;;4990163;28;87448;-66
2022/04/10 08:49:32;;;;;;;10.85;3.28;;;20.20;50.20;;;;;;4989990;28;87356;-67
2022/04/10 08:51:59;;;;;;;8.50;2.90;;;20.20;49.90;;;;;;4993162;28;88651;-66
2022/04/10 08:54:27;;;;;;;7.47;3.20;;;20.20;50.30;;;;;;4992732;28;90051;-67
2022/04/10 08:56:54;;;;;;;10.32;2.60;;;20.20;50.60;;;;;;4994046;28;87891;-67
2022/04/10 08:59:22;;;;;;;10.52;2.97;;;20.20;50.90;;;;;;4993578;28;87444;-67
2022/04/10 09:01:53;;;;;;;9.23;3.30;;;20.20;50.90;;;;;;4994026;28;89959;-67
2022/04/10 09:04:20;;;;;;;10.45;3.35;;;20.20;49.40;;;;;;4991993;28;88699;-66
2022/04/10 09:07:03;;;;;;;12.63;3.75;;;20.20;50.50;;;;;;4996478;28;88055;-66
2022/04/10 09:09:31;;;;;;;11.88;3.72;;;20.20;50.90;;;;;;5010267;28;88254;-67
2022/04/10 09:11:57;;;;;;;16.15;4.78;;;20.20;50.50;;;;;;4995155;28;88142;-66
2022/04/10 09:14:24;;;;;;;10.85;3.05;;;20.20;50.90;;;;;;4995710;28;87900;-66
2022/04/10 09:17:15;;;;;;;11.07;3.15;;;20.20;51.10;;;;;;4990744;28;88039;-67
2022/04/10 09:19:48;;;;;;;9.18;3.30;;;20.20;51.20;;;;;;4983180;28;87659;-67
2022/04/10 09:22:37;;;;;;;11.70;3.60;;;20.20;50.30;;;;;;4995255;28;88044;-67
2022/04/10 09:25:13;;;;;;;11.27;3.08;;;20.20;50.90;;;;;;4994829;28;87832;-67
2022/04/10 09:27:47;;;;;;;6.65;2.50;;;20.20;50.50;;;;;;4993116;28;88955;-67
2022/04/10 09:30:17;;;;;;;9.18;3.05;;;20.20;50.60;;;;;;4994117;28;88779;-67
2022/04/10 09:32:51;;;;;;;8.65;2.65;;;20.20;50.30;;;;;;4994629;28;88083;-67
2022/04/10 09:35:19;;;;;;;8.65;2.85;;;20.20;50.00;;;;;;4994177;28;87761;-67
2022/04/10 09:37:51;;;;;;;7.43;3.13;;;20.20;50.30;;;;;;4994661;28;88003;-67
2022/04/10 09:40:31;;;;;;;4.43;2.00;;;20.20;50.70;;;;;;4994784;28;90629;-67
2022/04/10 09:43:04;;;;;;;12.48;2.95;;;20.20;50.30;;;;;;4993780;28;89290;-67
2022/04/10 09:45:39;;;;;;;9.57;3.22;;;20.20;49.70;;;;;;4993727;28;88463;-67
2022/04/10 09:48:21;;;;;;;14.63;5.18;;;20.20;49.60;;;;;;4993113;28;87797;-67
2022/04/10 09:50:48;;;;;;;13.10;5.20;;;20.20;50.10;;;;;;5008435;28;89811;-67
2022/04/10 09:53:14;;;;;;;20.15;5.25;;;20.20;50.50;;;;;;4993517;28;89325;-67
2022/04/10 09:55:42;;;;;;;16.88;5.18;;;20.20;50.80;;;;;;4990456;28;88751;-67
2022/04/10 09:58:13;;;;;;;18.23;4.85;;;20.20;51.60;;;;;;4989843;28;88102;-67
2022/04/10 10:00:43;;;;;;;18.77;5.20;;;20.20;52.20;;;;;;4990914;28;88262;-67
2022/04/10 10:03:09;;;;;;;14.68;4.40;;;20.20;52.60;;;;;;4990050;28;87641;-67
2022/04/10 10:05:36;;;;;;;7.07;2.60;;;20.20;52.90;;;;;;4990174;28;88398;-67
2022/04/10 10:08:03;;;;;;;15.07;4.30;;;20.20;49.20;;;;;;4989751;28;87940;-67
2022/04/10 10:10:30;;;;;;;9.68;3.45;;;20.20;52.50;;;;;;4992015;28;88487;-67
2022/04/10 10:12:58;;;;;;;8.25;3.13;;;20.20;49.10;;;;;;4991557;28;89198;-67
2022/04/10 10:15:25;;;;;;;9.25;3.92;;;20.20;49.10;;;;;;4991438;28;87310;-68
2022/04/10 10:17:51;;;;;;;13.32;4.15;;;20.10;49.40;;;;;;4989843;28;88344;-67
2022/04/10 10:20:19;;;;;;;16.48;4.82;;;20.10;53.00;;;;;;4991585;28;87960;-67
2022/04/10 10:22:45;;;;;;;16.83;3.97;;;20.20;53.00;;;;;;4991242;28;88892;-67
2022/04/10 10:25:24;;;;;;;12.85;3.75;;;20.20;52.90;;;;;;4990167;28;88295;-67
2022/04/10 10:28:14;;;;;;;12.00;4.15;;;20.20;52.70;;;;;;4986492;28;87706;-67
2022/04/10 10:31:13;;;;;;;10.60;3.45;;;20.20;53.00;;;;;;4988642;28;88022;-67
2022/04/10 10:33:57;;;;;;;8.23;3.35;;;20.20;52.60;;;;;;4986628;28;89486;-67
2022/04/10 10:36:26;;;;;;;12.00;3.58;;;20.10;52.50;;;;;;4986344;28;89900;-67
2022/04/10 10:38:53;;;;;;;11.63;4.00;;;20.10;52.80;;;;;;4989171;28;88549;-67
2022/04/10 10:41:19;;;;;;;10.77;3.80;;;20.20;52.90;;;;;;4989986;28;90016;-67
2022/04/10 10:43:45;;;;;;;13.27;4.28;;;20.20;53.30;;;;;;4990820;28;88560;-67
2022/04/10 10:46:26;;;;;;;15.20;3.50;;;20.10;53.70;;;;;;4988579;28;89815;-68
2022/04/10 10:49:14;;;;;;;12.77;3.35;;;20.10;54.10;;;;;;4989827;28;87564;-67
2022/04/10 10:51:50;;;;;;;12.82;3.90;;;20.20;54.60;;;;;;4989732;28;87250;-67
2022/04/10 10:54:26;;;;;;;12.80;3.80;;;20.20;54.90;;;;;;5003016;28;91080;-67
2022/04/10 10:56:52;;;;;;;11.85;3.97;;;20.10;55.20;;;;;;4989543;28;87936;-67
2022/04/10 10:59:29;;;;;;;10.70;3.88;;;20.20;55.00;;;;;;4989942;28;86967;-67
2022/04/10 11:01:58;;;;;;;17.58;4.15;;;20.10;55.40;;;;;;4989571;28;89801;-67
2022/04/10 11:04:28;;;;;;;14.55;4.47;;;20.10;53.60;;;;;;4990936;28;87635;-67
2022/04/10 11:06:54;;;;;;;12.32;3.67;;;20.20;52.60;;;;;;4995296;28;91707;-68
2022/04/10 11:09:20;;;;;;;11.75;4.05;;;20.20;51.30;;;;;;4989015;28;88373;-70
2022/04/10 11:11:50;;;;;;;11.10;3.70;;;20.20;52.30;;;;;;4989567;28;88053;-67
2022/04/10 11:14:34;;;;;;;;;;;20.20;55.00;;;;;;4990822;28;87705;-67
2022/04/10 11:17:14;;;;;;;9.40;3.25;;;20.20;53.40;;;;;;4990456;28;87879;-67
2022/04/10 11:20:03;;;;;;;10.70;3.83;;;20.20;53.40;;;;;;4990014;28;87929;-67
2022/04/10 11:22:38;;;;;;;16.50;5.03;;;20.10;53.20;;;;;;4990415;28;87423;-67
2022/04/10 11:25:09;;;;;;;11.73;4.22;;;20.20;53.30;;;;;;4989847;28;87261;-67
2022/04/10 11:27:51;;;;;;;15.18;3.60;;;20.20;52.80;;;;;;4989285;28;87363;-67
2022/04/10 11:30:41;;;;;;;16.67;3.53;;;20.10;52.70;;;;;;4989113;28;87547;-67
2022/04/10 11:33:08;;;;;;;11.02;3.78;;;20.20;53.10;;;;;;4983184;28;87481;-67
2022/04/10 11:35:36;;;;;;;14.85;4.88;;;20.20;53.00;;;;;;4990150;28;88967;-67
2022/04/10 11:38:15;;;;;;;9.32;3.72;;;20.20;53.30;;;;;;4988789;28;91545;-67
2022/04/10 11:40:48;;;;;;;13.70;4.25;;;20.20;53.30;;;;;;4985181;28;87605;-67
2022/04/10 11:43:16;;;;;;;14.57;4.15;;;20.20;53.70;;;;;;4992012;28;90249;-68
2022/04/10 11:45:43;;;;;;;15.73;4.00;;;20.20;53.80;;;;;;4987122;28;90669;-67
2022/04/10 11:48:09;;;;;;;15.88;4.55;;;20.20;53.60;;;;;;4988458;28;90565;-67
2022/04/10 11:50:36;;;;;;;16.85;4.70;;;20.20;53.60;;;;;;4990064;28;88131;-67
2022/04/10 11:53:05;;;;;;;14.65;3.45;;;20.20;53.80;;;;;;4990434;28;87284;-67
2022/04/10 11:55:31;;;;;;;;;;;20.20;53.80;;;;;;4991047;28;88898;-67
2022/04/10 11:57:57;;;;;;;11.73;3.55;;;20.20;52.70;;;;;;5007066;28;90610;-67
2022/04/10 12:00:23;;;;;;;17.27;4.90;;;20.20;51.80;;;;;;4989313;28;87931;-67
2022/04/10 12:02:53;;;;;;;11.32;4.03;;;20.20;52.50;;;;;;4986935;28;88350;-68
2022/04/10 12:05:30;;;;;;;10.95;3.72;;;20.30;54.20;;;;;;4985213;28;87596;-67
2022/04/10 12:08:05;;;;;;;12.80;4.20;;;20.20;54.20;;;;;;4976486;28;90180;-68
2022/04/10 12:10:31;;;;;;;17.42;4.53;;;20.20;54.10;;;;;;4999593;28;88616;-67
2022/04/10 12:12:58;;;;;;;27.30;4.20;;;20.30;54.50;;;;;;4984401;28;87260;-68
2022/04/10 12:15:24;;;;;;;14.77;4.35;;;20.20;54.50;;;;;;4988230;28;88159;-68
2022/04/10 12:18:09;;;;;;;13.88;3.90;;;20.30;54.70;;;;;;5026927;22;88015;-69
2022/04/10 12:20:41;;;;;;;13.75;3.95;;;20.30;54.60;;;;;;5001727;28;87910;-70
2022/04/10 12:23:26;;;;;;;12.32;3.67;;;20.30;55.10;;;;;;5001508;28;90133;-70
2022/04/10 12:25:55;;;;;;;20.10;4.55;;;20.30;55.10;;;;;;5007386;28;88958;-70
2022/04/10 12:28:22;;;;;;;16.10;4.15;;;20.40;54.80;;;;;;5008472;28;88286;-70
2022/04/10 12:30:48;;;;;;;10.98;3.75;;;20.40;54.90;;;;;;5007614;28;87577;-70
2022/04/10 12:33:16;;;;;;;14.52;3.42;;;20.40;55.10;;;;;;4998656;28;88173;-69
2022/04/10 12:35:43;;;;;;;12.98;3.63;;;20.40;54.80;;;;;;5005217;28;87726;-70
2022/04/10 12:38:11;;;;;;;10.88;3.58;;;20.40;55.00;;;;;;4998582;28;87269;-70
2022/04/10 12:40:37;;;;;;;14.83;3.33;;;20.40;55.10;;;;;;5004229;28;88072;-70
2022/04/10 12:43:04;;;;;;;10.75;3.88;;;20.40;55.00;;;;;;5007309;28;86949;-70
2022/04/10 12:45:33;;;;;;;9.05;3.70;;;20.40;54.80;;;;;;5001200;28;88295;-70
2022/04/10 12:47:59;;;;;;;10.40;3.85;;;20.40;55.00;;;;;;4991476;28;91716;-70
2022/04/10 12:50:27;;;;;;;12.63;3.90;;;20.40;55.00;;;;;;5006252;28;88735;-68
2022/04/10 12:52:55;;;;;;;10.43;3.50;;;20.40;54.90;;;;;;5008387;28;88010;-69